Archival Weather

Sydney Intl

Sydney, Australia (YSSY)

Report from: Wednesday, May 22, 2024 1:00 AM AEST
Current time: Saturday, June 22, 2024 7:03 PM AEST

Current weather – Weather history – Daily summaries
Weather forecast

Temperature11.0°C (51.8°F)
Dew point8.0°C (46.4°F)
Winds 9 kts (4.6 m/s, 10.4 mph) Northwest (310°)
Visibility6.2 mi. (10 km)
Clouds Sky clear
Altimeter30.30 in.Hg (1026 mB)
Relative humidity82 %
Density altitude-754 ft. (-230 m)
Remarks Fully automated report
No clouds detected
Flight conditions Visual Meteorological Conditions
Raw dataYSSY 211500Z AUTO 31009KT 9999 // NCD 11/08 Q1026 RF00.0/000.2
An error has occurred. This application may no longer respond until reloaded. Reload 🗙